Carmarthen, United Kingdom
Current Conditions -  °F | °C
As of 2:50 AM on Saturday 20 Dec 2014 (Local Time) from EGOP Reporting Station
Broken Clouds Broken Clouds  
Wind Chill: 40°   Ceiling: 3400
Heat Index: 48°   Visibility: 6mi
Dew Point: 41°   Wind: 28mph
Humidity: 76%   Direction: 280°W
Pressure: 30.3"   Gusts: 40mph
Location:  51.86°N, 4.31°W
Report Text: EGOP 200250Z AUTO 28024G35KT 9999 // FEW027/// BKN034/// BKN047/// 09/05 Q1026
Loading
Personal Weather Stations






























Interactive Weather Map New forecast layout! Learn more

10-Day Weather Forecast

Advertisements
Track Severe Weather on mobile